sensor_id;sensor_type;location;lat;lon;timestamp;temperature;humidity
42841;DHT22;28491;46.898;7.660;2022-10-16T00:02:24;12.70;95.90
42841;DHT22;28491;46.898;7.660;2022-10-16T00:04:49;12.60;95.90
42841;DHT22;28491;46.898;7.660;2022-10-16T00:07:15;12.60;96.20
42841;DHT22;28491;46.898;7.660;2022-10-16T00:09:40;12.70;96.10
42841;DHT22;28491;46.898;7.660;2022-10-16T00:12:06;12.70;95.80
42841;DHT22;28491;46.898;7.660;2022-10-16T00:14:32;12.80;94.90
42841;DHT22;28491;46.898;7.660;2022-10-16T00:16:57;12.70;95.10
42841;DHT22;28491;46.898;7.660;2022-10-16T00:19:23;12.80;95.70
42841;DHT22;28491;46.898;7.660;2022-10-16T00:21:49;12.80;95.20
42841;DHT22;28491;46.898;7.660;2022-10-16T00:24:14;12.70;95.50
42841;DHT22;28491;46.898;7.660;2022-10-16T00:26:40;12.70;96.00
42841;DHT22;28491;46.898;7.660;2022-10-16T00:29:06;12.80;95.80
42841;DHT22;28491;46.898;7.660;2022-10-16T00:31:32;12.80;94.80
42841;DHT22;28491;46.898;7.660;2022-10-16T00:33:57;12.90;94.00
42841;DHT22;28491;46.898;7.660;2022-10-16T00:36:24;12.80;94.00
42841;DHT22;28491;46.898;7.660;2022-10-16T00:38:52;12.80;94.10
42841;DHT22;28491;46.898;7.660;2022-10-16T00:41:19;12.80;94.40
42841;DHT22;28491;46.898;7.660;2022-10-16T00:43:55;12.90;94.50
42841;DHT22;28491;46.898;7.660;2022-10-16T00:46:26;12.70;94.30
42841;DHT22;28491;46.898;7.660;2022-10-16T00:51:41;12.90;94.80
42841;DHT22;28491;46.898;7.660;2022-10-16T00:54:11;12.90;94.10
42841;DHT22;28491;46.898;7.660;2022-10-16T00:56:38;12.90;93.30
42841;DHT22;28491;46.898;7.660;2022-10-16T00:59:07;12.90;93.00
42841;DHT22;28491;46.898;7.660;2022-10-16T01:01:36;12.80;93.50
42841;DHT22;28491;46.898;7.660;2022-10-16T01:04:01;12.80;93.50
42841;DHT22;28491;46.898;7.660;2022-10-16T01:06:39;12.70;93.90
42841;DHT22;28491;46.898;7.660;2022-10-16T01:09:28;12.70;94.60
42841;DHT22;28491;46.898;7.660;2022-10-16T01:14:39;12.70;95.10
42841;DHT22;28491;46.898;7.660;2022-10-16T01:22:25;12.70;94.40
42841;DHT22;28491;46.898;7.660;2022-10-16T01:24:55;12.80;93.80
42841;DHT22;28491;46.898;7.660;2022-10-16T01:27:27;12.70;93.10
42841;DHT22;28491;46.898;7.660;2022-10-16T01:32:45;12.60;93.40
42841;DHT22;28491;46.898;7.660;2022-10-16T01:35:21;12.60;93.60
42841;DHT22;28491;46.898;7.660;2022-10-16T01:37:53;12.50;93.70
42841;DHT22;28491;46.898;7.660;2022-10-16T01:40:24;12.50;93.90
42841;DHT22;28491;46.898;7.660;2022-10-16T01:43:08;12.60;93.60
42841;DHT22;28491;46.898;7.660;2022-10-16T01:45:34;12.60;92.90
42841;DHT22;28491;46.898;7.660;2022-10-16T01:48:02;12.60;92.80
42841;DHT22;28491;46.898;7.660;2022-10-16T01:50:33;12.60;91.90
42841;DHT22;28491;46.898;7.660;2022-10-16T01:53:02;12.60;91.70
42841;DHT22;28491;46.898;7.660;2022-10-16T01:55:32;12.60;91.50
42841;DHT22;28491;46.898;7.660;2022-10-16T01:58:00;12.60;91.30
42841;DHT22;28491;46.898;7.660;2022-10-16T02:00:27;12.60;91.40
42841;DHT22;28491;46.898;7.660;2022-10-16T02:02:55;12.50;91.80
42841;DHT22;28491;46.898;7.660;2022-10-16T02:05:30;12.40;92.80
42841;DHT22;28491;46.898;7.660;2022-10-16T02:07:56;12.50;92.60
42841;DHT22;28491;46.898;7.660;2022-10-16T02:10:23;12.40;91.90
42841;DHT22;28491;46.898;7.660;2022-10-16T02:13:12;12.40;92.40
42841;DHT22;28491;46.898;7.660;2022-10-16T02:15:39;12.30;92.70
42841;DHT22;28491;46.898;7.660;2022-10-16T02:18:05;12.30;92.70
42841;DHT22;28491;46.898;7.660;2022-10-16T02:20:37;12.30;92.90
42841;DHT22;28491;46.898;7.660;2022-10-16T02:23:08;12.30;92.80
42841;DHT22;28491;46.898;7.660;2022-10-16T02:25:40;12.30;92.50
42841;DHT22;28491;46.898;7.660;2022-10-16T02:28:14;12.30;92.10
42841;DHT22;28491;46.898;7.660;2022-10-16T02:30:49;12.30;91.90
42841;DHT22;28491;46.898;7.660;2022-10-16T02:33:17;12.40;91.50
42841;DHT22;28491;46.898;7.660;2022-10-16T02:35:46;12.30;91.80
42841;DHT22;28491;46.898;7.660;2022-10-16T02:38:14;12.30;92.00
42841;DHT22;28491;46.898;7.660;2022-10-16T02:40:40;12.30;92.20
42841;DHT22;28491;46.898;7.660;2022-10-16T02:43:06;12.30;92.30
42841;DHT22;28491;46.898;7.660;2022-10-16T02:45:32;12.30;92.30
42841;DHT22;28491;46.898;7.660;2022-10-16T02:47:58;12.30;92.00
42841;DHT22;28491;46.898;7.660;2022-10-16T02:50:24;12.30;91.60
42841;DHT22;28491;46.898;7.660;2022-10-16T02:52:50;12.40;92.00
42841;DHT22;28491;46.898;7.660;2022-10-16T02:55:16;12.40;90.70
42841;DHT22;28491;46.898;7.660;2022-10-16T02:57:41;12.40;90.10
42841;DHT22;28491;46.898;7.660;2022-10-16T03:00:09;12.40;90.30
42841;DHT22;28491;46.898;7.660;2022-10-16T03:02:35;12.50;90.40
42841;DHT22;28491;46.898;7.660;2022-10-16T03:05:00;12.40;90.30
42841;DHT22;28491;46.898;7.660;2022-10-16T03:07:26;12.40;91.00
42841;DHT22;28491;46.898;7.660;2022-10-16T03:09:52;12.40;91.30
42841;DHT22;28491;46.898;7.660;2022-10-16T03:12:17;12.40;91.80
42841;DHT22;28491;46.898;7.660;2022-10-16T03:14:43;12.40;91.50
42841;DHT22;28491;46.898;7.660;2022-10-16T03:17:08;12.40;91.10
42841;DHT22;28491;46.898;7.660;2022-10-16T03:19:34;12.40;92.00
42841;DHT22;28491;46.898;7.660;2022-10-16T03:22:01;12.40;91.20
42841;DHT22;28491;46.898;7.660;2022-10-16T03:24:26;12.40;90.00
42841;DHT22;28491;46.898;7.660;2022-10-16T03:26:52;12.40;90.70
42841;DHT22;28491;46.898;7.660;2022-10-16T03:29:17;12.40;90.80
42841;DHT22;28491;46.898;7.660;2022-10-16T03:31:43;12.30;91.30
42841;DHT22;28491;46.898;7.660;2022-10-16T03:34:08;12.30;91.60
42841;DHT22;28491;46.898;7.660;2022-10-16T03:36:34;12.40;91.50
42841;DHT22;28491;46.898;7.660;2022-10-16T03:38:59;12.40;90.70
42841;DHT22;28491;46.898;7.660;2022-10-16T03:41:25;12.40;90.30
42841;DHT22;28491;46.898;7.660;2022-10-16T03:43:51;12.40;90.10
42841;DHT22;28491;46.898;7.660;2022-10-16T03:46:16;12.40;89.90
42841;DHT22;28491;46.898;7.660;2022-10-16T03:48:42;12.50;88.40
42841;DHT22;28491;46.898;7.660;2022-10-16T03:51:07;12.40;90.30
42841;DHT22;28491;46.898;7.660;2022-10-16T03:53:33;12.30;91.20
42841;DHT22;28491;46.898;7.660;2022-10-16T03:55:58;12.30;90.80
42841;DHT22;28491;46.898;7.660;2022-10-16T03:58:24;12.30;91.30
42841;DHT22;28491;46.898;7.660;2022-10-16T04:00:49;12.30;91.70
42841;DHT22;28491;46.898;7.660;2022-10-16T04:03:15;12.40;91.40
42841;DHT22;28491;46.898;7.660;2022-10-16T04:05:41;12.30;90.90
42841;DHT22;28491;46.898;7.660;2022-10-16T04:08:06;12.30;91.40
42841;DHT22;28491;46.898;7.660;2022-10-16T04:10:32;12.30;91.10
42841;DHT22;28491;46.898;7.660;2022-10-16T04:12:57;12.30;89.00
42841;DHT22;28491;46.898;7.660;2022-10-16T04:15:23;12.30;90.40
42841;DHT22;28491;46.898;7.660;2022-10-16T04:17:49;12.30;88.70
42841;DHT22;28491;46.898;7.660;2022-10-16T04:20:14;12.30;88.90
42841;DHT22;28491;46.898;7.660;2022-10-16T04:22:40;12.30;90.50
42841;DHT22;28491;46.898;7.660;2022-10-16T04:25:06;12.20;91.40
42841;DHT22;28491;46.898;7.660;2022-10-16T04:27:31;12.30;91.50
42841;DHT22;28491;46.898;7.660;2022-10-16T04:29:58;12.30;90.50
42841;DHT22;28491;46.898;7.660;2022-10-16T04:32:23;12.30;90.60
42841;DHT22;28491;46.898;7.660;2022-10-16T04:34:49;12.30;90.90
42841;DHT22;28491;46.898;7.660;2022-10-16T04:37:14;12.30;90.30
42841;DHT22;28491;46.898;7.660;2022-10-16T04:39:40;12.20;90.70
42841;DHT22;28491;46.898;7.660;2022-10-16T04:42:05;12.20;90.30
42841;DHT22;28491;46.898;7.660;2022-10-16T04:44:31;12.10;90.20
42841;DHT22;28491;46.898;7.660;2022-10-16T04:46:57;12.20;90.20
42841;DHT22;28491;46.898;7.660;2022-10-16T04:49:22;12.20;90.00
42841;DHT22;28491;46.898;7.660;2022-10-16T04:51:48;12.20;88.40
42841;DHT22;28491;46.898;7.660;2022-10-16T04:54:13;12.20;88.20
42841;DHT22;28491;46.898;7.660;2022-10-16T04:56:39;12.20;87.10
42841;DHT22;28491;46.898;7.660;2022-10-16T04:59:15;12.30;85.10
42841;DHT22;28491;46.898;7.660;2022-10-16T05:01:41;12.30;83.20
42841;DHT22;28491;46.898;7.660;2022-10-16T05:04:07;12.40;84.00
42841;DHT22;28491;46.898;7.660;2022-10-16T05:06:33;12.30;83.90
42841;DHT22;28491;46.898;7.660;2022-10-16T05:08:58;12.30;85.00
42841;DHT22;28491;46.898;7.660;2022-10-16T05:11:24;12.10;86.10
42841;DHT22;28491;46.898;7.660;2022-10-16T05:13:50;12.00;88.70
42841;DHT22;28491;46.898;7.660;2022-10-16T05:16:15;12.00;89.60
42841;DHT22;28491;46.898;7.660;2022-10-16T05:18:41;12.00;90.30
42841;DHT22;28491;46.898;7.660;2022-10-16T05:21:06;12.00;90.80
42841;DHT22;28491;46.898;7.660;2022-10-16T05:23:32;12.10;90.20
42841;DHT22;28491;46.898;7.660;2022-10-16T05:25:58;12.10;90.70
42841;DHT22;28491;46.898;7.660;2022-10-16T05:28:26;12.00;89.30
42841;DHT22;28491;46.898;7.660;2022-10-16T05:30:52;12.10;89.80
42841;DHT22;28491;46.898;7.660;2022-10-16T05:33:20;12.10;89.50
42841;DHT22;28491;46.898;7.660;2022-10-16T05:35:46;12.10;88.20
42841;DHT22;28491;46.898;7.660;2022-10-16T05:38:11;12.20;87.90
42841;DHT22;28491;46.898;7.660;2022-10-16T05:40:37;12.10;88.00
42841;DHT22;28491;46.898;7.660;2022-10-16T05:43:03;12.10;87.10
42841;DHT22;28491;46.898;7.660;2022-10-16T05:45:28;12.10;87.30
42841;DHT22;28491;46.898;7.660;2022-10-16T05:47:54;12.10;86.20
42841;DHT22;28491;46.898;7.660;2022-10-16T05:50:19;12.10;87.50
42841;DHT22;28491;46.898;7.660;2022-10-16T05:52:45;12.00;88.70
42841;DHT22;28491;46.898;7.660;2022-10-16T05:55:10;12.10;88.00
42841;DHT22;28491;46.898;7.660;2022-10-16T05:57:36;12.10;87.80
42841;DHT22;28491;46.898;7.660;2022-10-16T06:00:03;12.00;90.00
42841;DHT22;28491;46.898;7.660;2022-10-16T06:02:28;12.00;90.60
42841;DHT22;28491;46.898;7.660;2022-10-16T06:04:54;12.00;90.40
42841;DHT22;28491;46.898;7.660;2022-10-16T06:07:20;12.00;90.60
42841;DHT22;28491;46.898;7.660;2022-10-16T06:09:52;12.00;90.90
42841;DHT22;28491;46.898;7.660;2022-10-16T06:12:19;12.10;89.90
42841;DHT22;28491;46.898;7.660;2022-10-16T06:14:45;12.10;88.30
42841;DHT22;28491;46.898;7.660;2022-10-16T06:17:15;12.10;86.70
42841;DHT22;28491;46.898;7.660;2022-10-16T06:19:40;12.00;88.70
42841;DHT22;28491;46.898;7.660;2022-10-16T06:22:06;11.90;90.30
42841;DHT22;28491;46.898;7.660;2022-10-16T06:24:32;11.90;90.60
42841;DHT22;28491;46.898;7.660;2022-10-16T06:26:57;11.90;91.50
42841;DHT22;28491;46.898;7.660;2022-10-16T06:29:23;11.90;91.80
42841;DHT22;28491;46.898;7.660;2022-10-16T06:31:48;11.90;91.40
42841;DHT22;28491;46.898;7.660;2022-10-16T06:34:14;12.00;91.30
42841;DHT22;28491;46.898;7.660;2022-10-16T06:36:39;12.10;90.30
42841;DHT22;28491;46.898;7.660;2022-10-16T06:39:06;12.20;87.20
42841;DHT22;28491;46.898;7.660;2022-10-16T06:41:33;12.40;84.70
42841;DHT22;28491;46.898;7.660;2022-10-16T06:43:59;12.40;83.90
42841;DHT22;28491;46.898;7.660;2022-10-16T06:46:25;12.40;83.80
42841;DHT22;28491;46.898;7.660;2022-10-16T06:48:50;12.80;83.10
42841;DHT22;28491;46.898;7.660;2022-10-16T06:51:18;13.90;76.50
42841;DHT22;28491;46.898;7.660;2022-10-16T06:53:46;15.10;69.60
42841;DHT22;28491;46.898;7.660;2022-10-16T06:56:17;15.80;66.40
42841;DHT22;28491;46.898;7.660;2022-10-16T06:58:43;15.10;67.70
42841;DHT22;28491;46.898;7.660;2022-10-16T07:01:10;14.40;69.40
42841;DHT22;28491;46.898;7.660;2022-10-16T07:03:37;14.20;71.20
42841;DHT22;28491;46.898;7.660;2022-10-16T07:06:04;14.10;72.00
42841;DHT22;28491;46.898;7.660;2022-10-16T07:08:31;13.90;72.20
42841;DHT22;28491;46.898;7.660;2022-10-16T07:11:01;13.70;73.40
42841;DHT22;28491;46.898;7.660;2022-10-16T07:13:27;13.70;74.70
42841;DHT22;28491;46.898;7.660;2022-10-16T07:15:53;13.50;74.70
42841;DHT22;28491;46.898;7.660;2022-10-16T07:18:19;13.40;75.70
42841;DHT22;28491;46.898;7.660;2022-10-16T07:20:44;13.40;76.10
42841;DHT22;28491;46.898;7.660;2022-10-16T07:23:10;13.40;76.60
42841;DHT22;28491;46.898;7.660;2022-10-16T07:25:35;13.40;76.00
42841;DHT22;28491;46.898;7.660;2022-10-16T07:28:01;13.50;77.10
42841;DHT22;28491;46.898;7.660;2022-10-16T07:30:26;13.50;78.20
42841;DHT22;28491;46.898;7.660;2022-10-16T07:32:52;13.50;77.50
42841;DHT22;28491;46.898;7.660;2022-10-16T07:35:17;13.50;76.50
42841;DHT22;28491;46.898;7.660;2022-10-16T07:37:46;13.40;76.00
42841;DHT22;28491;46.898;7.660;2022-10-16T07:40:12;13.50;76.20
42841;DHT22;28491;46.898;7.660;2022-10-16T07:42:38;13.40;76.40
42841;DHT22;28491;46.898;7.660;2022-10-16T07:45:04;13.50;76.40
42841;DHT22;28491;46.898;7.660;2022-10-16T07:47:29;13.60;76.80
42841;DHT22;28491;46.898;7.660;2022-10-16T07:49:55;13.70;76.10
42841;DHT22;28491;46.898;7.660;2022-10-16T07:52:20;13.70;76.70
42841;DHT22;28491;46.898;7.660;2022-10-16T07:54:46;13.70;77.40
42841;DHT22;28491;46.898;7.660;2022-10-16T07:57:11;13.80;77.40
42841;DHT22;28491;46.898;7.660;2022-10-16T07:59:37;13.70;76.40
42841;DHT22;28491;46.898;7.660;2022-10-16T08:02:03;13.80;75.90
42841;DHT22;28491;46.898;7.660;2022-10-16T08:04:28;13.80;75.80
42841;DHT22;28491;46.898;7.660;2022-10-16T08:06:54;13.80;75.70
42841;DHT22;28491;46.898;7.660;2022-10-16T08:09:20;13.90;74.40
42841;DHT22;28491;46.898;7.660;2022-10-16T08:11:45;13.90;74.90
42841;DHT22;28491;46.898;7.660;2022-10-16T08:14:11;14.00;75.70
42841;DHT22;28491;46.898;7.660;2022-10-16T08:16:36;14.00;74.40
42841;DHT22;28491;46.898;7.660;2022-10-16T08:19:02;14.00;74.20
42841;DHT22;28491;46.898;7.660;2022-10-16T08:21:28;14.00;74.40
42841;DHT22;28491;46.898;7.660;2022-10-16T08:23:54;14.00;76.20
42841;DHT22;28491;46.898;7.660;2022-10-16T08:26:20;14.00;74.50
42841;DHT22;28491;46.898;7.660;2022-10-16T08:28:48;13.90;76.10
42841;DHT22;28491;46.898;7.660;2022-10-16T08:31:15;14.00;75.50
42841;DHT22;28491;46.898;7.660;2022-10-16T08:33:43;14.00;75.80
42841;DHT22;28491;46.898;7.660;2022-10-16T08:36:11;13.90;75.30
42841;DHT22;28491;46.898;7.660;2022-10-16T08:38:37;13.90;75.70
42841;DHT22;28491;46.898;7.660;2022-10-16T08:49:30;14.20;75.30
42841;DHT22;28491;46.898;7.660;2022-10-16T08:51:56;14.20;75.70
42841;DHT22;28491;46.898;7.660;2022-10-16T08:54:25;14.30;74.60
42841;DHT22;28491;46.898;7.660;2022-10-16T08:56:53;14.40;73.30
42841;DHT22;28491;46.898;7.660;2022-10-16T08:59:19;14.30;74.20
42841;DHT22;28491;46.898;7.660;2022-10-16T09:01:47;14.40;73.50
42841;DHT22;28491;46.898;7.660;2022-10-16T09:04:23;14.30;74.30
42841;DHT22;28491;46.898;7.660;2022-10-16T09:12:57;17.60;66.00
42841;DHT22;28491;46.898;7.660;2022-10-16T09:15:39;18.70;63.60
42841;DHT22;28491;46.898;7.660;2022-10-16T09:18:15;19.20;60.50
42841;DHT22;28491;46.898;7.660;2022-10-16T09:20:53;20.00;59.20
42841;DHT22;28491;46.898;7.660;2022-10-16T09:23:26;20.10;54.50
42841;DHT22;28491;46.898;7.660;2022-10-16T09:25:53;19.80;60.50
42841;DHT22;28491;46.898;7.660;2022-10-16T09:28:20;19.50;60.20
42841;DHT22;28491;46.898;7.660;2022-10-16T09:30:46;19.70;60.80
42841;DHT22;28491;46.898;7.660;2022-10-16T09:33:15;19.50;61.10
42841;DHT22;28491;46.898;7.660;2022-10-16T09:35:46;19.20;60.80
42841;DHT22;28491;46.898;7.660;2022-10-16T09:38:28;19.70;60.20
42841;DHT22;28491;46.898;7.660;2022-10-16T09:40:56;19.70;60.10
42841;DHT22;28491;46.898;7.660;2022-10-16T09:43:40;19.80;61.80
42841;DHT22;28491;46.898;7.660;2022-10-16T09:48:49;19.60;60.60
42841;DHT22;28491;46.898;7.660;2022-10-16T09:53:53;19.90;60.30
42841;DHT22;28491;46.898;7.660;2022-10-16T09:56:33;20.00;54.10
42841;DHT22;28491;46.898;7.660;2022-10-16T09:59:16;20.20;50.20
42841;DHT22;28491;46.898;7.660;2022-10-16T10:01:53;20.10;48.40
42841;DHT22;28491;46.898;7.660;2022-10-16T10:04:22;20.10;46.60
42841;DHT22;28491;46.898;7.660;2022-10-16T10:11:55;20.80;42.60
42841;DHT22;28491;46.898;7.660;2022-10-16T10:14:35;20.80;43.60
42841;DHT22;28491;46.898;7.660;2022-10-16T10:19:37;21.20;54.20
42841;DHT22;28491;46.898;7.660;2022-10-16T10:22:23;21.40;60.70
42841;DHT22;28491;46.898;7.660;2022-10-16T10:27:39;22.20;43.20
42841;DHT22;28491;46.898;7.660;2022-10-16T10:35:47;21.50;59.90
42841;DHT22;28491;46.898;7.660;2022-10-16T10:44:03;20.40;62.80
42841;DHT22;28491;46.898;7.660;2022-10-16T10:46:35;20.30;62.80
42841;DHT22;28491;46.898;7.660;2022-10-16T10:49:04;20.40;62.30
42841;DHT22;28491;46.898;7.660;2022-10-16T10:54:35;21.70;58.10
42841;DHT22;28491;46.898;7.660;2022-10-16T10:57:12;22.00;47.50
42841;DHT22;28491;46.898;7.660;2022-10-16T11:02:48;22.50;45.80
42841;DHT22;28491;46.898;7.660;2022-10-16T11:05:40;22.50;41.40
42841;DHT22;28491;46.898;7.660;2022-10-16T11:08:16;22.50;42.70
42841;DHT22;28491;46.898;7.660;2022-10-16T11:11:05;22.60;36.80
42841;DHT22;28491;46.898;7.660;2022-10-16T11:13:33;22.60;30.20
42841;DHT22;28491;46.898;7.660;2022-10-16T11:16:09;22.50;34.90
42841;DHT22;28491;46.898;7.660;2022-10-16T11:18:55;22.50;31.60
42841;DHT22;28491;46.898;7.660;2022-10-16T11:21:22;22.60;32.00
42841;DHT22;28491;46.898;7.660;2022-10-16T11:23:51;22.40;31.00
42841;DHT22;28491;46.898;7.660;2022-10-16T11:26:30;22.40;38.90
42841;DHT22;28491;46.898;7.660;2022-10-16T11:29:00;22.60;34.50
42841;DHT22;28491;46.898;7.660;2022-10-16T11:31:38;22.40;32.90
42841;DHT22;28491;46.898;7.660;2022-10-16T11:34:28;22.30;33.50
42841;DHT22;28491;46.898;7.660;2022-10-16T11:36:58;22.40;35.80
42841;DHT22;28491;46.898;7.660;2022-10-16T11:39:31;22.40;30.20
42841;DHT22;28491;46.898;7.660;2022-10-16T11:42:11;22.50;32.50
42841;DHT22;28491;46.898;7.660;2022-10-16T11:45:07;22.70;28.30
42841;DHT22;28491;46.898;7.660;2022-10-16T11:47:45;22.60;29.00
42841;DHT22;28491;46.898;7.660;2022-10-16T11:55:59;22.90;31.60
42841;DHT22;28491;46.898;7.660;2022-10-16T12:01:18;22.80;31.30
42841;DHT22;28491;46.898;7.660;2022-10-16T12:03:55;22.70;32.40
42841;DHT22;28491;46.898;7.660;2022-10-16T12:08:59;22.70;34.80
42841;DHT22;28491;46.898;7.660;2022-10-16T12:16:39;22.60;33.60
42841;DHT22;28491;46.898;7.660;2022-10-16T12:19:17;22.60;24.60
42841;DHT22;28491;46.898;7.660;2022-10-16T12:21:43;22.80;29.00
42841;DHT22;28491;46.898;7.660;2022-10-16T12:24:32;22.80;35.50
42841;DHT22;28491;46.898;7.660;2022-10-16T12:26:59;22.90;29.70
42841;DHT22;28491;46.898;7.660;2022-10-16T12:32:00;22.90;32.90
42841;DHT22;28491;46.898;7.660;2022-10-16T12:34:41;22.90;34.40
42841;DHT22;28491;46.898;7.660;2022-10-16T12:37:29;22.80;34.40
42841;DHT22;28491;46.898;7.660;2022-10-16T12:39:56;23.00;40.10
42841;DHT22;28491;46.898;7.660;2022-10-16T12:42:32;22.90;29.90
42841;DHT22;28491;46.898;7.660;2022-10-16T12:44:59;22.90;41.20
42841;DHT22;28491;46.898;7.660;2022-10-16T12:49:57;22.80;33.20
42841;DHT22;28491;46.898;7.660;2022-10-16T12:54:56;22.70;31.00
42841;DHT22;28491;46.898;7.660;2022-10-16T13:05:21;22.60;41.40
42841;DHT22;28491;46.898;7.660;2022-10-16T13:07:56;22.60;31.80
42841;DHT22;28491;46.898;7.660;2022-10-16T13:13:49;22.70;37.20
42841;DHT22;28491;46.898;7.660;2022-10-16T13:19:08;22.70;42.20
42841;DHT22;28491;46.898;7.660;2022-10-16T13:21:49;22.70;39.00
42841;DHT22;28491;46.898;7.660;2022-10-16T13:27:09;22.40;30.80
42841;DHT22;28491;46.898;7.660;2022-10-16T13:29:38;22.40;37.70
42841;DHT22;28491;46.898;7.660;2022-10-16T13:32:07;22.50;46.70
42841;DHT22;28491;46.898;7.660;2022-10-16T13:34:41;22.40;35.90
42841;DHT22;28491;46.898;7.660;2022-10-16T13:37:20;22.30;37.20
42841;DHT22;28491;46.898;7.660;2022-10-16T13:39:46;22.30;39.30
42841;DHT22;28491;46.898;7.660;2022-10-16T13:42:26;22.40;30.40
42841;DHT22;28491;46.898;7.660;2022-10-16T13:44:54;22.50;34.40
42841;DHT22;28491;46.898;7.660;2022-10-16T13:47:26;22.10;28.10
42841;DHT22;28491;46.898;7.660;2022-10-16T13:50:05;22.10;39.00
42841;DHT22;28491;46.898;7.660;2022-10-16T13:52:31;22.10;33.50
42841;DHT22;28491;46.898;7.660;2022-10-16T13:54:57;22.10;36.90
42841;DHT22;28491;46.898;7.660;2022-10-16T13:57:24;22.20;33.30
42841;DHT22;28491;46.898;7.660;2022-10-16T13:59:50;22.20;29.50
42841;DHT22;28491;46.898;7.660;2022-10-16T14:02:24;22.40;32.30
42841;DHT22;28491;46.898;7.660;2022-10-16T14:04:51;22.30;33.00
42841;DHT22;28491;46.898;7.660;2022-10-16T14:07:24;22.40;36.80
42841;DHT22;28491;46.898;7.660;2022-10-16T14:09:52;22.30;33.10
42841;DHT22;28491;46.898;7.660;2022-10-16T14:12:18;22.20;27.20
42841;DHT22;28491;46.898;7.660;2022-10-16T14:14:51;22.30;37.90
42841;DHT22;28491;46.898;7.660;2022-10-16T14:17:27;22.10;38.20
42841;DHT22;28491;46.898;7.660;2022-10-16T14:19:55;22.20;32.30
42841;DHT22;28491;46.898;7.660;2022-10-16T14:24:58;22.00;33.70
42841;DHT22;28491;46.898;7.660;2022-10-16T14:27:33;21.90;39.50
42841;DHT22;28491;46.898;7.660;2022-10-16T14:30:21;21.90;38.80
42841;DHT22;28491;46.898;7.660;2022-10-16T14:37:58;22.00;46.50
42841;DHT22;28491;46.898;7.660;2022-10-16T14:40:30;22.00;46.80
42841;DHT22;28491;46.898;7.660;2022-10-16T14:42:56;21.90;45.80
42841;DHT22;28491;46.898;7.660;2022-10-16T14:45:26;22.00;47.20
42841;DHT22;28491;46.898;7.660;2022-10-16T14:47:54;21.90;45.80
42841;DHT22;28491;46.898;7.660;2022-10-16T14:50:22;22.00;46.70
42841;DHT22;28491;46.898;7.660;2022-10-16T14:52:47;21.90;45.70
42841;DHT22;28491;46.898;7.660;2022-10-16T14:55:13;21.80;42.70
42841;DHT22;28491;46.898;7.660;2022-10-16T14:57:39;21.70;49.60
42841;DHT22;28491;46.898;7.660;2022-10-16T15:00:18;21.70;46.20
42841;DHT22;28491;46.898;7.660;2022-10-16T15:02:45;21.60;48.00
42841;DHT22;28491;46.898;7.660;2022-10-16T15:05:23;21.50;54.40
42841;DHT22;28491;46.898;7.660;2022-10-16T15:07:50;21.50;49.70
42841;DHT22;28491;46.898;7.660;2022-10-16T15:10:17;21.40;49.20
42841;DHT22;28491;46.898;7.660;2022-10-16T15:12:43;21.40;48.20
42841;DHT22;28491;46.898;7.660;2022-10-16T15:17:54;21.10;60.70
42841;DHT22;28491;46.898;7.660;2022-10-16T15:20:28;20.90;58.70
42841;DHT22;28491;46.898;7.660;2022-10-16T15:22:53;20.70;58.00
42841;DHT22;28491;46.898;7.660;2022-10-16T15:25:26;20.60;60.90
42841;DHT22;28491;46.898;7.660;2022-10-16T15:27:53;20.50;61.60
42841;DHT22;28491;46.898;7.660;2022-10-16T15:30:18;20.50;59.20
42841;DHT22;28491;46.898;7.660;2022-10-16T15:32:44;20.50;60.10
42841;DHT22;28491;46.898;7.660;2022-10-16T15:35:09;20.40;60.00
42841;DHT22;28491;46.898;7.660;2022-10-16T15:37:35;20.20;59.00
42841;DHT22;28491;46.898;7.660;2022-10-16T15:40:00;20.00;60.30
42841;DHT22;28491;46.898;7.660;2022-10-16T15:42:26;19.90;60.40
42841;DHT22;28491;46.898;7.660;2022-10-16T15:44:52;19.80;60.50
42841;DHT22;28491;46.898;7.660;2022-10-16T15:47:17;19.60;61.70
42841;DHT22;28491;46.898;7.660;2022-10-16T15:49:43;19.40;62.00
42841;DHT22;28491;46.898;7.660;2022-10-16T15:52:08;19.20;62.60
42841;DHT22;28491;46.898;7.660;2022-10-16T15:54:34;19.10;63.40
42841;DHT22;28491;46.898;7.660;2022-10-16T15:56:59;18.90;63.30
42841;DHT22;28491;46.898;7.660;2022-10-16T15:59:25;18.90;62.60
42841;DHT22;28491;46.898;7.660;2022-10-16T16:01:50;18.80;63.00
42841;DHT22;28491;46.898;7.660;2022-10-16T16:04:16;18.80;63.90
42841;DHT22;28491;46.898;7.660;2022-10-16T16:06:42;18.60;65.00
42841;DHT22;28491;46.898;7.660;2022-10-16T16:09:13;18.50;65.90
42841;DHT22;28491;46.898;7.660;2022-10-16T16:11:39;18.40;65.90
42841;DHT22;28491;46.898;7.660;2022-10-16T16:14:11;18.30;66.70
42841;DHT22;28491;46.898;7.660;2022-10-16T16:16:38;18.20;66.30
42841;DHT22;28491;46.898;7.660;2022-10-16T16:19:04;18.20;66.10
42841;DHT22;28491;46.898;7.660;2022-10-16T16:21:31;18.10;67.10
42841;DHT22;28491;46.898;7.660;2022-10-16T16:23:57;18.20;67.10
42841;DHT22;28491;46.898;7.660;2022-10-16T16:26:27;18.10;67.20
42841;DHT22;28491;46.898;7.660;2022-10-16T16:28:56;17.90;67.50
42841;DHT22;28491;46.898;7.660;2022-10-16T16:31:26;17.80;67.60
42841;DHT22;28491;46.898;7.660;2022-10-16T16:33:53;17.70;67.60
42841;DHT22;28491;46.898;7.660;2022-10-16T16:36:19;17.40;68.40
42841;DHT22;28491;46.898;7.660;2022-10-16T16:38:45;17.30;69.30
42841;DHT22;28491;46.898;7.660;2022-10-16T16:43:37;17.10;69.30
42841;DHT22;28491;46.898;7.660;2022-10-16T16:46:03;17.10;69.30
42841;DHT22;28491;46.898;7.660;2022-10-16T16:48:29;16.80;70.20
42841;DHT22;28491;46.898;7.660;2022-10-16T16:50:54;16.70;70.40
42841;DHT22;28491;46.898;7.660;2022-10-16T16:53:20;16.70;70.10
42841;DHT22;28491;46.898;7.660;2022-10-16T16:55:47;16.60;70.20
42841;DHT22;28491;46.898;7.660;2022-10-16T16:58:12;16.50;70.60
42841;DHT22;28491;46.898;7.660;2022-10-16T17:00:45;16.40;70.50
42841;DHT22;28491;46.898;7.660;2022-10-16T17:03:11;16.30;70.50
42841;DHT22;28491;46.898;7.660;2022-10-16T17:05:36;16.30;71.10
42841;DHT22;28491;46.898;7.660;2022-10-16T17:08:02;16.10;71.20
42841;DHT22;28491;46.898;7.660;2022-10-16T17:10:27;16.00;71.60
42841;DHT22;28491;46.898;7.660;2022-10-16T17:12:53;15.90;72.10
42841;DHT22;28491;46.898;7.660;2022-10-16T17:15:18;15.90;72.50
42841;DHT22;28491;46.898;7.660;2022-10-16T17:17:44;16.00;71.40
42841;DHT22;28491;46.898;7.660;2022-10-16T17:20:10;16.00;71.00
42841;DHT22;28491;46.898;7.660;2022-10-16T17:22:36;16.00;70.90
42841;DHT22;28491;46.898;7.660;2022-10-16T17:25:01;15.80;71.10
42841;DHT22;28491;46.898;7.660;2022-10-16T17:27:29;15.60;71.70
42841;DHT22;28491;46.898;7.660;2022-10-16T17:29:54;15.40;72.80
42841;DHT22;28491;46.898;7.660;2022-10-16T17:32:20;15.40;72.70
42841;DHT22;28491;46.898;7.660;2022-10-16T17:34:46;15.40;72.80